Time;durP1;ratioP1;P1;durP2;ratioP2;P2;SDS_P1;SDS_P2;PMS_P1;PMS_P2;Temp;Humidity;BMP_temperature;BMP_pressure;BME280_temperature;BME280_humidity;BME280_pressure;Samples;Min_cycle;Max_cycle;Signal;HPM_P1;HPM_P2
2021/10/15 00:02:03;;;;;;;23.00;20.50;;;12.40;99.90;;;;;;5047552;28;20250;-72
2021/10/15 00:04:29;;;;;;;22.50;20.20;;;12.40;99.90;;;;;;5047509;28;20326;-73
2021/10/15 00:06:56;;;;;;;21.53;19.17;;;12.40;99.90;;;;;;5047947;28;20204;-73
2021/10/15 00:09:23;;;;;;;20.70;18.57;;;12.40;99.90;;;;;;5051226;28;20208;-73
2021/10/15 00:11:50;;;;;;;21.53;19.33;;;12.40;99.90;;;;;;5051295;28;20236;-73
2021/10/15 00:14:18;;;;;;;20.60;18.13;;;12.40;99.90;;;;;;5051045;28;20234;-72
2021/10/15 00:16:44;;;;;;;20.30;17.57;;;12.40;99.90;;;;;;5050972;28;20666;-72
2021/10/15 00:19:11;;;;;;;20.07;17.77;;;12.40;99.90;;;;;;5050789;28;20259;-72
2021/10/15 00:21:38;;;;;;;19.73;17.67;;;12.40;99.90;;;;;;5050724;28;20305;-72
2021/10/15 00:24:05;;;;;;;21.03;17.97;;;12.30;99.90;;;;;;5050688;28;20228;-72
2021/10/15 00:26:31;;;;;;;19.43;17.20;;;12.30;99.90;;;;;;5050701;28;20258;-71
2021/10/15 00:28:58;;;;;;;19.63;17.27;;;12.30;99.90;;;;;;5050665;28;20200;-72
2021/10/15 00:31:26;;;;;;;17.77;15.60;;;12.30;99.90;;;;;;5050645;28;20204;-73
2021/10/15 00:33:53;;;;;;;17.83;16.00;;;12.30;99.90;;;;;;5050970;28;20262;-72
2021/10/15 00:36:19;;;;;;;17.20;15.33;;;12.30;99.90;;;;;;5050602;28;20285;-71
2021/10/15 00:38:46;;;;;;;15.80;14.30;;;12.30;99.90;;;;;;5050335;28;20211;-71
2021/10/15 00:41:12;;;;;;;16.50;14.80;;;12.30;99.90;;;;;;5050527;28;20224;-72
2021/10/15 00:44:01;;;;;;;17.20;14.27;;;12.30;99.90;;;;;;5050171;28;20228;-72
2021/10/15 00:46:29;;;;;;;16.33;14.63;;;12.30;99.90;;;;;;5050412;28;20193;-73
2021/10/15 00:48:56;;;;;;;16.67;14.00;;;12.30;99.90;;;;;;5050295;28;20236;-72
2021/10/15 00:51:24;;;;;;;15.47;13.87;;;12.30;99.90;;;;;;5050275;28;20258;-73
2021/10/15 00:53:51;;;;;;;15.30;13.70;;;12.20;99.90;;;;;;5050225;28;20311;-73
2021/10/15 00:56:18;;;;;;;15.23;13.63;;;12.20;99.90;;;;;;5050252;28;20253;-73
2021/10/15 00:58:44;;;;;;;16.73;13.27;;;12.20;99.90;;;;;;5049809;28;20725;-72
2021/10/15 01:01:11;;;;;;;18.37;13.23;;;12.20;99.90;;;;;;5049621;28;20240;-73
2021/10/15 01:03:40;;;;;;;13.93;12.53;;;12.20;99.90;;;;;;5049836;28;20227;-73
2021/10/15 01:06:06;;;;;;;13.17;11.77;;;12.20;99.90;;;;;;5050079;28;20235;-73
2021/10/15 01:08:38;;;;;;;12.40;11.13;;;12.20;99.90;;;;;;5050003;28;20230;-72
2021/10/15 01:11:05;;;;;;;13.33;11.97;;;12.20;99.90;;;;;;5049913;28;20196;-73
2021/10/15 01:13:33;;;;;;;12.47;11.27;;;12.20;99.90;;;;;;5049648;28;20212;-73
2021/10/15 01:16:04;;;;;;;13.97;11.77;;;12.20;99.90;;;;;;5049717;28;20211;-73
2021/10/15 01:18:31;;;;;;;12.87;11.57;;;12.10;99.90;;;;;;5049436;28;21133;-73
2021/10/15 01:20:58;;;;;;;11.63;10.43;;;12.10;99.90;;;;;;5049710;28;20278;-72
2021/10/15 01:23:25;;;;;;;13.00;11.60;;;12.10;99.90;;;;;;5049617;28;20267;-70
2021/10/15 01:25:53;;;;;;;13.83;10.87;;;12.10;99.90;;;;;;5049860;28;20208;-70
2021/10/15 01:28:20;;;;;;;11.23;10.10;;;12.10;99.90;;;;;;5049366;28;20215;-71
2021/10/15 01:30:46;;;;;;;11.53;10.43;;;12.10;99.90;;;;;;5049743;28;20239;-71
2021/10/15 01:33:13;;;;;;;13.43;10.60;;;12.10;99.90;;;;;;5049616;28;20255;-71
2021/10/15 01:35:40;;;;;;;11.17;10.10;;;12.10;99.90;;;;;;5048879;28;20748;-71
2021/10/15 01:38:08;;;;;;;11.37;10.37;;;12.10;99.90;;;;;;5049552;28;20617;-71
2021/10/15 01:40:35;;;;;;;10.47;9.57;;;12.10;99.90;;;;;;5049194;28;20281;-71
2021/10/15 01:43:02;;;;;;;10.97;9.97;;;12.10;99.90;;;;;;5049202;28;20244;-71
2021/10/15 01:45:31;;;;;;;11.57;10.30;;;12.10;99.90;;;;;;5048747;28;20331;-72
2021/10/15 01:47:59;;;;;;;11.10;10.00;;;12.10;99.90;;;;;;5049211;28;20200;-72
2021/10/15 01:50:26;;;;;;;11.60;10.37;;;12.10;99.90;;;;;;5049403;28;20239;-72
2021/10/15 01:52:54;;;;;;;11.80;10.60;;;12.00;99.90;;;;;;5048713;28;20208;-72
2021/10/15 01:55:23;;;;;;;11.37;10.27;;;12.00;99.90;;;;;;5048866;28;20216;-72
2021/10/15 01:57:50;;;;;;;11.07;9.87;;;12.00;99.90;;;;;;5049461;28;20330;-72
2021/10/15 02:00:17;;;;;;;11.57;10.57;;;12.00;99.90;;;;;;5048588;28;20264;-72
2021/10/15 02:02:45;;;;;;;11.10;10.07;;;12.00;99.90;;;;;;5048944;28;20208;-71
2021/10/15 02:05:16;;;;;;;11.37;10.20;;;12.00;99.90;;;;;;5048849;28;20302;-71
2021/10/15 02:07:43;;;;;;;12.33;9.70;;;12.00;99.90;;;;;;5048905;28;20192;-71
2021/10/15 02:10:11;;;;;;;10.07;9.13;;;12.00;99.90;;;;;;5048819;28;20254;-71
2021/10/15 02:12:40;;;;;;;12.10;10.23;;;12.00;99.90;;;;;;5048899;28;20248;-71
2021/10/15 02:15:08;;;;;;;10.10;9.30;;;12.00;99.90;;;;;;5048538;28;20204;-71
2021/10/15 02:17:35;;;;;;;10.87;9.83;;;12.10;99.90;;;;;;5048419;28;20309;-72
2021/10/15 02:20:03;;;;;;;10.50;9.40;;;12.10;99.90;;;;;;5048731;28;20265;-71
2021/10/15 02:22:30;;;;;;;9.97;8.97;;;12.10;99.90;;;;;;5048421;28;20204;-71
2021/10/15 02:24:56;;;;;;;10.23;9.23;;;12.00;99.90;;;;;;5048597;28;20266;-71
2021/10/15 02:27:23;;;;;;;9.17;8.33;;;12.00;99.90;;;;;;5048210;28;20591;-72
2021/10/15 02:29:51;;;;;;;9.63;8.83;;;12.10;99.90;;;;;;5047836;28;20616;-72
2021/10/15 02:32:18;;;;;;;9.07;8.37;;;12.00;99.90;;;;;;5048034;28;20570;-72
2021/10/15 02:34:45;;;;;;;9.57;8.67;;;12.00;99.90;;;;;;5048211;28;20632;-72
2021/10/15 02:37:11;;;;;;;10.43;9.43;;;12.00;99.90;;;;;;5048104;28;20247;-72
2021/10/15 02:39:38;;;;;;;10.03;8.90;;;12.00;99.90;;;;;;5046800;28;20263;-72
2021/10/15 02:42:04;;;;;;;9.80;8.97;;;12.00;99.90;;;;;;5047563;28;20671;-72
2021/10/15 02:44:34;;;;;;;9.87;8.50;;;12.00;99.90;;;;;;5047621;28;20236;-72
2021/10/15 02:47:02;;;;;;;9.40;8.50;;;12.00;99.90;;;;;;5048301;28;20203;-72
2021/10/15 02:49:28;;;;;;;8.53;7.83;;;12.00;99.90;;;;;;5048293;28;20204;-72
2021/10/15 02:51:55;;;;;;;9.93;8.97;;;12.00;99.90;;;;;;5048147;28;20208;-71
2021/10/15 02:54:22;;;;;;;9.20;8.30;;;12.00;99.90;;;;;;5048109;28;20276;-72
2021/10/15 02:56:48;;;;;;;8.70;7.90;;;12.10;99.90;;;;;;5042515;28;20224;-72
2021/10/15 02:59:15;;;;;;;8.30;7.50;;;12.00;99.90;;;;;;5038767;28;20283;-70
2021/10/15 03:01:41;;;;;;;9.17;8.23;;;12.00;99.90;;;;;;5047780;28;20708;-71
2021/10/15 03:04:10;;;;;;;8.20;7.40;;;12.00;99.90;;;;;;5047698;28;20781;-72
2021/10/15 03:06:36;;;;;;;8.70;7.87;;;12.00;99.90;;;;;;5047967;28;20208;-71
2021/10/15 03:09:04;;;;;;;9.07;8.37;;;12.00;99.90;;;;;;5043593;28;20209;-71
2021/10/15 03:11:31;;;;;;;9.30;8.37;;;12.00;99.90;;;;;;5025560;28;20204;-71
2021/10/15 03:13:57;;;;;;;8.80;8.07;;;12.00;99.90;;;;;;5025932;28;20213;-71
2021/10/15 03:16:24;;;;;;;8.23;7.53;;;12.00;99.90;;;;;;5025900;28;20283;-71
2021/10/15 03:18:50;;;;;;;8.03;7.33;;;12.00;99.90;;;;;;5026012;28;20264;-71
2021/10/15 03:21:18;;;;;;;8.00;7.20;;;12.10;99.90;;;;;;5029179;28;20227;-71
2021/10/15 03:23:45;;;;;;;8.17;7.37;;;12.10;99.90;;;;;;5046063;28;20215;-71
2021/10/15 03:26:12;;;;;;;8.40;7.70;;;12.10;99.90;;;;;;5045397;28;20726;-71
2021/10/15 03:28:38;;;;;;;7.30;6.60;;;12.10;99.90;;;;;;5045273;28;20297;-71
2021/10/15 03:31:05;;;;;;;8.13;7.00;;;12.10;99.90;;;;;;5045320;28;20212;-70
2021/10/15 03:33:31;;;;;;;7.27;6.57;;;12.20;99.90;;;;;;5045433;28;20238;-71
2021/10/15 03:35:58;;;;;;;7.60;6.90;;;12.20;99.90;;;;;;5045665;28;20243;-71
2021/10/15 03:38:26;;;;;;;7.03;6.53;;;12.10;99.90;;;;;;5045617;28;20236;-71
2021/10/15 03:40:53;;;;;;;6.97;6.37;;;12.10;99.90;;;;;;5045930;28;20652;-71
2021/10/15 03:43:19;;;;;;;7.33;6.63;;;12.20;99.90;;;;;;5047967;28;20250;-71
2021/10/15 03:45:46;;;;;;;8.20;6.80;;;12.20;99.90;;;;;;5049321;28;20275;-71
2021/10/15 03:48:12;;;;;;;7.00;6.30;;;12.20;99.90;;;;;;5049609;28;20285;-71
2021/10/15 03:50:39;;;;;;;6.77;6.10;;;12.20;99.90;;;;;;5049077;28;20282;-71
2021/10/15 03:53:07;;;;;;;7.13;6.10;;;12.30;99.90;;;;;;5048997;28;20239;-71
2021/10/15 03:55:35;;;;;;;6.70;6.20;;;12.20;99.90;;;;;;5048851;28;20322;-71
2021/10/15 03:58:02;;;;;;;6.10;5.70;;;12.30;99.90;;;;;;5044834;28;20278;-73
2021/10/15 04:00:29;;;;;;;6.30;5.80;;;12.20;99.90;;;;;;5033147;28;20260;-71
2021/10/15 04:02:55;;;;;;;5.97;5.37;;;12.30;99.90;;;;;;5048812;28;20199;-71
2021/10/15 04:05:22;;;;;;;6.13;5.60;;;12.30;99.90;;;;;;5057945;28;20312;-71
2021/10/15 04:07:49;;;;;;;6.20;5.70;;;12.30;99.90;;;;;;5061231;28;20245;-71
2021/10/15 04:10:15;;;;;;;6.17;5.57;;;12.30;99.90;;;;;;5058841;28;20258;-71
2021/10/15 04:12:43;;;;;;;5.90;5.40;;;12.30;99.90;;;;;;5059828;28;20207;-71
2021/10/15 04:15:12;;;;;;;5.47;5.07;;;12.30;99.90;;;;;;5064030;28;20606;-71
2021/10/15 04:17:39;;;;;;;5.87;5.23;;;12.30;99.90;;;;;;5061441;28;20218;-71
2021/10/15 04:20:07;;;;;;;5.77;5.27;;;12.30;99.90;;;;;;5061533;28;20628;-71
2021/10/15 04:22:34;;;;;;;5.50;4.93;;;12.30;99.90;;;;;;5061039;28;20230;-71
2021/10/15 04:25:00;;;;;;;5.30;4.90;;;12.30;99.90;;;;;;5061561;28;20220;-71
2021/10/15 04:27:27;;;;;;;6.00;5.37;;;12.30;99.90;;;;;;5061738;28;20195;-71
2021/10/15 04:29:55;;;;;;;6.20;5.60;;;12.30;99.90;;;;;;5060892;28;20211;-71
2021/10/15 04:32:22;;;;;;;5.70;5.20;;;12.30;99.90;;;;;;5059310;28;20200;-71
2021/10/15 04:34:48;;;;;;;6.20;5.00;;;12.30;99.90;;;;;;5058250;28;20667;-71
2021/10/15 04:37:15;;;;;;;7.57;5.53;;;12.30;99.90;;;;;;5055937;28;20200;-71
2021/10/15 04:39:42;;;;;;;6.13;5.53;;;12.30;99.90;;;;;;5060787;28;20281;-71
2021/10/15 04:42:09;;;;;;;5.27;4.87;;;12.30;99.90;;;;;;5058243;28;21534;-71
2021/10/15 04:44:36;;;;;;;5.30;4.80;;;12.30;99.90;;;;;;5055837;28;20224;-71
2021/10/15 04:47:04;;;;;;;5.97;5.13;;;12.30;99.90;;;;;;5060776;28;20204;-71
2021/10/15 04:49:30;;;;;;;5.27;4.87;;;12.30;99.90;;;;;;5057592;28;20228;-71
2021/10/15 04:51:57;;;;;;;5.50;5.10;;;12.30;99.90;;;;;;5060934;28;20242;-71
2021/10/15 04:54:24;;;;;;;4.90;4.50;;;12.30;99.90;;;;;;5058085;28;20235;-71
2021/10/15 04:56:50;;;;;;;5.80;4.87;;;12.30;99.90;;;;;;5059900;28;20216;-71
2021/10/15 04:59:17;;;;;;;5.77;5.30;;;12.30;99.90;;;;;;5059203;28;20839;-72
2021/10/15 05:01:44;;;;;;;6.17;5.20;;;12.40;99.90;;;;;;5058847;28;20720;-73
2021/10/15 05:04:13;;;;;;;5.57;5.07;;;12.40;99.90;;;;;;5063793;28;20200;-71
2021/10/15 05:06:42;;;;;;;6.50;4.90;;;12.40;99.90;;;;;;5061711;28;20245;-71
2021/10/15 05:11:55;;;;;;;6.00;5.50;;;12.40;99.90;;;;;;5060172;28;20271;-71
2021/10/15 05:14:21;;;;;;;7.00;5.40;;;12.30;99.90;;;;;;5058828;28;20657;-71
2021/10/15 05:16:48;;;;;;;5.60;5.20;;;12.40;99.90;;;;;;5059413;28;20214;-71
2021/10/15 05:19:16;;;;;;;5.70;5.30;;;12.40;99.90;;;;;;5060006;28;20257;-71
2021/10/15 05:21:43;;;;;;;5.77;4.90;;;12.40;99.90;;;;;;5058741;28;20593;-72
2021/10/15 05:24:09;;;;;;;5.60;5.10;;;12.40;99.90;;;;;;5060227;28;20263;-72
2021/10/15 05:26:36;;;;;;;5.80;4.50;;;12.30;99.90;;;;;;5054710;28;20248;-71
2021/10/15 05:29:03;;;;;;;5.50;5.00;;;12.30;99.90;;;;;;5058741;28;20200;-71
2021/10/15 05:31:30;;;;;;;5.13;4.73;;;12.30;99.90;;;;;;5059151;28;20227;-71
2021/10/15 05:33:56;;;;;;;6.73;4.90;;;12.30;99.90;;;;;;5054713;28;20728;-71
2021/10/15 05:36:24;;;;;;;6.07;5.23;;;12.20;99.90;;;;;;5058474;28;20200;-71
2021/10/15 05:38:51;;;;;;;5.80;4.90;;;12.20;99.90;;;;;;5059065;28;20276;-71
2021/10/15 05:41:17;;;;;;;5.17;4.87;;;12.20;99.90;;;;;;5057525;28;20243;-71
2021/10/15 05:43:44;;;;;;;7.63;5.07;;;12.20;99.90;;;;;;5057910;28;20665;-71
2021/10/15 05:46:11;;;;;;;5.87;4.90;;;12.30;99.90;;;;;;5058963;28;20262;-71
2021/10/15 05:48:38;;;;;;;6.10;5.13;;;12.30;99.90;;;;;;5056930;28;20658;-71
2021/10/15 05:51:04;;;;;;;4.90;4.53;;;12.30;99.90;;;;;;5057783;28;20200;-71
2021/10/15 05:53:34;;;;;;;5.67;4.83;;;12.30;99.90;;;;;;5058601;28;20206;-71
2021/10/15 05:56:18;;;;;;;5.20;4.70;;;12.30;99.90;;;;;;5057266;28;20215;-71
2021/10/15 05:58:50;;;;;;;5.17;4.77;;;12.30;99.90;;;;;;5055473;28;20569;-72
2021/10/15 06:01:19;;;;;;;5.13;4.60;;;12.30;99.90;;;;;;5052739;28;20231;-71
2021/10/15 06:03:51;;;;;;;5.10;4.53;;;12.30;99.90;;;;;;5060635;28;20700;-71
2021/10/15 06:14:47;;;;;;;3.83;3.47;;;12.30;99.90;;;;;;5051821;28;20270;-71
2021/10/15 06:17:18;;;;;;;4.07;3.77;;;12.30;99.90;;;;;;5039272;28;20234;-71
2021/10/15 06:19:48;;;;;;;5.00;4.20;;;12.30;99.90;;;;;;5054402;28;20224;-71
2021/10/15 06:22:14;;;;;;;5.67;4.17;;;12.40;99.90;;;;;;5056934;28;20204;-73
2021/10/15 06:24:42;;;;;;;3.80;3.23;;;12.40;99.90;;;;;;5057362;28;21002;-73
2021/10/15 06:27:09;;;;;;;4.70;4.10;;;12.50;99.90;;;;;;5056144;28;20235;-73
2021/10/15 06:29:35;;;;;;;4.73;4.17;;;12.50;99.90;;;;;;5052391;28;20228;-71
2021/10/15 06:32:02;;;;;;;4.57;4.17;;;12.50;99.90;;;;;;5058533;28;20280;-71
2021/10/15 06:34:29;;;;;;;5.90;4.07;;;12.50;99.90;;;;;;5057548;28;20195;-71
2021/10/15 06:36:55;;;;;;;4.27;3.80;;;12.50;99.90;;;;;;5058221;28;20204;-71
2021/10/15 06:39:22;;;;;;;4.13;3.83;;;12.50;99.90;;;;;;5058448;28;20219;-71
2021/10/15 06:41:50;;;;;;;4.27;3.67;;;12.50;99.90;;;;;;5056651;28;20203;-71
2021/10/15 06:44:16;;;;;;;4.70;3.63;;;12.50;99.90;;;;;;5056971;28;20268;-71
2021/10/15 06:46:43;;;;;;;3.70;3.30;;;12.50;99.90;;;;;;5052440;28;20273;-71
2021/10/15 06:49:10;;;;;;;3.40;3.10;;;12.50;99.90;;;;;;5047552;28;20243;-71
2021/10/15 06:51:37;;;;;;;3.23;3.03;;;12.50;99.90;;;;;;5056307;28;20200;-71
2021/10/15 06:54:03;;;;;;;3.27;3.07;;;12.50;99.90;;;;;;5052260;28;20200;-71
2021/10/15 06:56:31;;;;;;;3.80;3.30;;;12.50;99.90;;;;;;5049115;28;20216;-71
2021/10/15 06:58:58;;;;;;;3.60;3.30;;;12.50;99.90;;;;;;5055393;28;20195;-71
2021/10/15 07:01:25;;;;;;;3.40;3.10;;;12.60;99.90;;;;;;5055263;28;20555;-71
2021/10/15 07:03:52;;;;;;;3.03;2.83;;;12.60;99.90;;;;;;5057295;28;20199;-71
2021/10/15 07:06:18;;;;;;;3.13;2.83;;;12.60;99.90;;;;;;5054731;28;20992;-71
2021/10/15 07:08:45;;;;;;;2.90;2.53;;;12.60;99.90;;;;;;5050017;28;20284;-71
2021/10/15 07:11:13;;;;;;;3.50;2.90;;;12.60;99.90;;;;;;5055026;28;20258;-71
2021/10/15 07:13:39;;;;;;;2.80;2.60;;;12.60;99.90;;;;;;5056029;28;20250;-71
2021/10/15 07:16:08;;;;;;;3.23;2.93;;;12.60;99.90;;;;;;5056935;28;20196;-71
2021/10/15 07:18:34;;;;;;;3.93;2.87;;;12.60;99.90;;;;;;5059397;28;20200;-71
2021/10/15 07:21:01;;;;;;;3.87;3.10;;;12.60;99.90;;;;;;5052404;28;20248;-73
2021/10/15 07:23:27;;;;;;;3.13;2.93;;;12.60;99.90;;;;;;5053113;28;20242;-73
2021/10/15 07:25:54;;;;;;;3.07;2.87;;;12.60;99.90;;;;;;5056530;28;20259;-73
2021/10/15 07:28:22;;;;;;;2.90;2.70;;;12.70;99.90;;;;;;5062060;28;20203;-71
2021/10/15 07:30:49;;;;;;;3.47;2.70;;;12.70;99.90;;;;;;5066051;28;20749;-71
2021/10/15 07:33:17;;;;;;;2.90;2.70;;;12.70;99.90;;;;;;5065109;28;20203;-71
2021/10/15 07:35:44;;;;;;;2.80;2.57;;;12.70;99.90;;;;;;5057898;28;20247;-71
2021/10/15 07:38:11;;;;;;;2.90;2.70;;;12.70;99.90;;;;;;5048691;28;20285;-71
2021/10/15 07:40:37;;;;;;;4.37;3.33;;;12.70;99.90;;;;;;5050732;28;20214;-71
2021/10/15 07:43:04;;;;;;;3.03;2.83;;;12.70;99.90;;;;;;5050443;28;20950;-71
2021/10/15 07:45:31;;;;;;;4.13;2.63;;;12.80;99.90;;;;;;5050161;28;20259;-71
2021/10/15 07:47:58;;;;;;;2.80;2.60;;;12.80;99.90;;;;;;5050948;28;20212;-71
2021/10/15 07:50:26;;;;;;;3.53;2.83;;;12.80;99.90;;;;;;5049753;28;20246;-71
2021/10/15 07:52:52;;;;;;;2.80;2.60;;;12.80;99.90;;;;;;5051014;28;20253;-71
2021/10/15 07:55:19;;;;;;;3.17;2.40;;;12.90;99.90;;;;;;5051146;28;20290;-73
2021/10/15 07:57:46;;;;;;;3.37;3.07;;;12.90;99.90;;;;;;5051112;28;20262;-71
2021/10/15 08:00:13;;;;;;;3.00;2.30;;;12.90;99.90;;;;;;5045858;28;20267;-71
2021/10/15 08:02:40;;;;;;;2.50;2.30;;;12.90;99.90;;;;;;5040553;28;20554;-71
2021/10/15 08:05:07;;;;;;;2.73;2.40;;;12.90;99.90;;;;;;5043382;28;20205;-70
2021/10/15 08:07:35;;;;;;;3.27;2.73;;;12.90;99.90;;;;;;5031158;28;20240;-70
2021/10/15 08:10:02;;;;;;;2.30;2.20;;;12.90;99.90;;;;;;5033013;28;20205;-70
2021/10/15 08:12:28;;;;;;;2.30;2.17;;;12.90;99.90;;;;;;5029847;28;20208;-70
2021/10/15 08:14:55;;;;;;;3.40;2.60;;;12.90;99.90;;;;;;5029790;28;20721;-70
2021/10/15 08:17:22;;;;;;;2.47;2.17;;;12.90;99.90;;;;;;5030380;28;20252;-70
2021/10/15 08:19:49;;;;;;;3.03;2.23;;;12.90;99.90;;;;;;5011911;28;20769;-70
2021/10/15 08:22:16;;;;;;;2.10;2.00;;;12.90;99.90;;;;;;5011165;28;20737;-70
2021/10/15 08:24:44;;;;;;;2.27;2.17;;;12.90;99.90;;;;;;5010898;28;20210;-70
2021/10/15 08:27:11;;;;;;;2.70;2.30;;;12.90;99.90;;;;;;5011082;28;20283;-70
2021/10/15 08:29:39;;;;;;;3.20;2.37;;;12.90;99.90;;;;;;5010030;28;20202;-70
2021/10/15 08:32:07;;;;;;;2.33;2.13;;;12.90;99.90;;;;;;5010518;28;20209;-71
2021/10/15 08:34:34;;;;;;;2.10;2.00;;;13.00;99.90;;;;;;5010598;28;20214;-70
2021/10/15 08:37:01;;;;;;;3.57;2.37;;;13.00;99.90;;;;;;5011025;28;20210;-70
2021/10/15 08:39:28;;;;;;;3.40;2.37;;;13.00;99.90;;;;;;5010164;28;20280;-70
2021/10/15 08:41:58;;;;;;;3.47;2.00;;;13.10;99.90;;;;;;5010823;28;20232;-70
2021/10/15 08:44:27;;;;;;;2.83;2.00;;;13.10;99.90;;;;;;5010517;28;20260;-70
2021/10/15 08:46:54;;;;;;;6.90;2.10;;;13.20;99.90;;;;;;5010816;28;20229;-70
2021/10/15 08:49:21;;;;;;;1.93;1.83;;;13.20;99.90;;;;;;5010660;28;20209;-70
2021/10/15 08:51:49;;;;;;;3.07;2.33;;;13.20;99.90;;;;;;5010595;28;20569;-70
2021/10/15 08:54:16;;;;;;;2.20;2.00;;;13.20;99.90;;;;;;5009916;28;20261;-70
2021/10/15 08:56:42;;;;;;;2.73;1.87;;;13.20;99.90;;;;;;5010634;28;20264;-70
2021/10/15 08:59:10;;;;;;;3.80;2.37;;;13.20;99.90;;;;;;5010280;28;20214;-70
2021/10/15 09:01:41;;;;;;;3.50;1.80;;;13.20;99.90;;;;;;5010574;28;20194;-70
2021/10/15 09:04:10;;;;;;;2.90;2.10;;;13.20;99.90;;;;;;5010407;28;20625;-70
2021/10/15 09:06:39;;;;;;;2.60;2.40;;;13.20;99.90;;;;;;5010392;28;20309;-70
2021/10/15 09:09:06;;;;;;;2.70;2.50;;;13.20;99.90;;;;;;5010434;28;20209;-70
2021/10/15 09:11:35;;;;;;;3.20;2.90;;;13.20;99.90;;;;;;5010036;28;20704;-70
2021/10/15 09:14:11;;;;;;;2.53;2.33;;;13.20;99.90;;;;;;5010139;28;20656;-70
2021/10/15 09:17:02;;;;;;;1.77;1.67;;;13.20;99.90;;;;;;5009868;28;20233;-70
2021/10/15 09:19:31;;;;;;;2.67;2.30;;;13.30;99.90;;;;;;5009694;28;20221;-70
2021/10/15 09:22:10;;;;;;;2.50;2.30;;;13.30;99.90;;;;;;5010117;28;20267;-70
2021/10/15 09:24:40;;;;;;;2.30;2.20;;;13.30;99.90;;;;;;5009905;28;20201;-70
2021/10/15 09:27:15;;;;;;;2.67;1.87;;;13.40;99.90;;;;;;5010064;28;20328;-70
2021/10/15 09:29:44;;;;;;;2.90;2.03;;;13.40;99.90;;;;;;5009580;28;20205;-70
2021/10/15 09:32:12;;;;;;;2.30;2.10;;;13.40;99.90;;;;;;5009995;28;20206;-70
2021/10/15 09:34:39;;;;;;;4.80;2.60;;;13.50;99.90;;;;;;5010169;28;20205;-70
2021/10/15 09:37:12;;;;;;;2.50;2.00;;;13.50;99.90;;;;;;5009410;28;20588;-70
2021/10/15 09:39:38;;;;;;;2.00;1.90;;;13.50;99.90;;;;;;5008691;28;20209;-71
2021/10/15 09:42:15;;;;;;;2.10;1.90;;;13.50;99.90;;;;;;5009646;28;20214;-70
2021/10/15 09:44:43;;;;;;;2.67;2.00;;;13.50;99.90;;;;;;5009543;28;20233;-70
2021/10/15 09:47:16;;;;;;;2.30;1.90;;;13.40;99.90;;;;;;5009469;28;20264;-70
2021/10/15 09:49:48;;;;;;;2.07;1.87;;;13.40;99.90;;;;;;5009202;28;20210;-70
2021/10/15 09:52:24;;;;;;;2.87;1.63;;;13.40;99.90;;;;;;5009553;28;20224;-70
2021/10/15 09:54:59;;;;;;;3.93;1.80;;;13.40;99.90;;;;;;5008822;28;20229;-71
2021/10/15 09:57:31;;;;;;;2.17;2.03;;;13.40;99.90;;;;;;5009516;28;20200;-70
2021/10/15 10:00:00;;;;;;;2.13;1.83;;;13.40;99.90;;;;;;5009050;28;20233;-70
2021/10/15 10:02:27;;;;;;;1.70;1.60;;;13.40;99.90;;;;;;5008949;28;20256;-70
2021/10/15 10:04:55;;;;;;;4.50;1.80;;;13.40;99.90;;;;;;5009232;28;20279;-71
2021/10/15 10:07:23;;;;;;;1.77;1.60;;;13.40;99.90;;;;;;5009211;28;20631;-70
2021/10/15 10:09:50;;;;;;;2.17;1.80;;;13.40;99.90;;;;;;5009379;28;20206;-71
2021/10/15 10:12:18;;;;;;;2.33;2.10;;;13.40;99.90;;;;;;5009258;28;20201;-70
2021/10/15 10:14:44;;;;;;;4.70;1.80;;;13.50;99.90;;;;;;5008872;28;20568;-70
2021/10/15 10:17:15;;;;;;;2.30;2.07;;;13.50;99.90;;;;;;5009048;28;20806;-70
2021/10/15 10:19:44;;;;;;;1.53;1.40;;;13.50;99.90;;;;;;5008626;28;20766;-70
2021/10/15 10:22:11;;;;;;;3.07;1.70;;;13.50;99.90;;;;;;5009051;28;20208;-70
2021/10/15 10:24:47;;;;;;;3.70;1.90;;;13.50;99.90;;;;;;5008964;28;20292;-70
2021/10/15 10:27:26;;;;;;;1.90;1.77;;;13.50;99.90;;;;;;5008922;28;20252;-71
2021/10/15 10:29:54;;;;;;;1.90;1.80;;;13.50;99.90;;;;;;5009058;28;20202;-70
2021/10/15 10:32:24;;;;;;;2.10;1.87;;;13.50;99.90;;;;;;5008715;28;20205;-71
2021/10/15 10:34:51;;;;;;;2.60;2.00;;;13.40;99.90;;;;;;5008820;28;20213;-71
2021/10/15 10:37:19;;;;;;;2.40;2.20;;;13.40;99.90;;;;;;5008469;28;20707;-70
2021/10/15 10:39:46;;;;;;;3.70;1.90;;;13.40;99.90;;;;;;5008575;28;20220;-70
2021/10/15 10:42:14;;;;;;;2.30;2.20;;;13.40;99.90;;;;;;5008687;28;20275;-70
2021/10/15 10:44:41;;;;;;;2.40;2.20;;;13.40;99.90;;;;;;5007592;28;20264;-70
2021/10/15 10:47:14;;;;;;;3.73;2.10;;;13.20;99.90;;;;;;5008522;28;20311;-70
2021/10/15 10:50:04;;;;;;;2.40;2.20;;;13.10;99.90;;;;;;5008225;28;20560;-71
2021/10/15 10:52:33;;;;;;;3.03;2.70;;;13.00;99.90;;;;;;5007422;28;20586;-70
2021/10/15 10:55:00;;;;;;;2.73;2.40;;;12.80;99.90;;;;;;5008090;28;20692;-70
2021/10/15 10:57:29;;;;;;;3.07;2.67;;;12.70;99.90;;;;;;5008420;28;20210;-70
2021/10/15 11:00:19;;;;;;;4.03;2.53;;;12.70;99.90;;;;;;5008176;28;20233;-70
2021/10/15 11:02:49;;;;;;;5.37;2.40;;;12.70;99.90;;;;;;5008483;28;20204;-70
2021/10/15 11:05:34;;;;;;;3.53;2.67;;;12.60;99.90;;;;;;5008452;28;20646;-71
2021/10/15 11:08:31;;;;;;;2.70;2.50;;;12.60;99.90;;;;;;5008326;28;20225;-71
2021/10/15 11:11:44;;;;;;;2.50;2.30;;;12.60;99.90;;;;;;5007999;28;20320;-70
2021/10/15 11:14:50;;;;;;;5.17;3.07;;;12.60;99.90;;;;;;5008344;28;20201;-70
2021/10/15 11:17:18;;;;;;;3.77;2.77;;;12.60;99.90;;;;;;5008329;28;20197;-71
2021/10/15 11:19:45;;;;;;;3.80;3.03;;;12.60;99.90;;;;;;5008218;28;20734;-70
2021/10/15 11:22:12;;;;;;;4.80;2.90;;;12.60;99.90;;;;;;5008397;28;20205;-70
2021/10/15 11:24:53;;;;;;;3.30;2.70;;;12.60;99.90;;;;;;5008578;28;20291;-70
2021/10/15 11:27:20;;;;;;;3.57;3.23;;;12.60;99.90;;;;;;5008279;28;20253;-70
2021/10/15 11:29:54;;;;;;;3.53;3.20;;;12.40;99.90;;;;;;5008337;28;20217;-70
2021/10/15 11:32:34;;;;;;;3.30;3.00;;;12.40;99.90;;;;;;5008402;28;20197;-70
2021/10/15 11:35:09;;;;;;;3.13;2.97;;;12.40;99.90;;;;;;5007920;28;20204;-70
2021/10/15 11:37:58;;;;;;;4.73;3.60;;;12.30;99.90;;;;;;5008142;28;20245;-70
2021/10/15 11:40:33;;;;;;;3.87;3.57;;;12.30;99.90;;;;;;5004893;28;20213;-70
2021/10/15 11:43:11;;;;;;;5.57;3.80;;;12.30;99.90;;;;;;5008276;28;20197;-70
2021/10/15 11:45:40;;;;;;;4.43;4.03;;;12.20;99.90;;;;;;5008145;28;20201;-71
2021/10/15 11:48:09;;;;;;;4.70;4.30;;;12.10;99.90;;;;;;5008096;28;20287;-70
2021/10/15 11:50:45;;;;;;;3.80;3.50;;;12.00;99.90;;;;;;5008016;28;20209;-70
2021/10/15 11:53:14;;;;;;;3.93;3.53;;;11.70;99.90;;;;;;5008021;28;20229;-70
2021/10/15 11:55:43;;;;;;;4.03;2.47;;;11.60;99.90;;;;;;5007660;28;20738;-70
2021/10/15 11:58:25;;;;;;;2.83;1.90;;;11.50;99.90;;;;;;5008333;28;20219;-70
2021/10/15 12:01:04;;;;;;;1.80;1.70;;;11.50;99.90;;;;;;5007434;28;20726;-70
2021/10/15 12:03:32;;;;;;;1.60;1.50;;;11.50;99.90;;;;;;5008974;28;20206;-70
2021/10/15 12:06:11;;;;;;;1.30;1.20;;;11.30;99.90;;;;;;5011637;28;20214;-70
2021/10/15 12:08:38;;;;;;;1.60;1.50;;;11.40;99.90;;;;;;5011196;28;20761;-70
2021/10/15 12:11:11;;;;;;;1.90;1.80;;;11.50;99.90;;;;;;5011337;28;20570;-70
2021/10/15 12:13:38;;;;;;;1.40;1.30;;;11.60;99.90;;;;;;5011348;28;20256;-70
2021/10/15 12:16:21;;;;;;;2.13;1.40;;;11.60;99.90;;;;;;5011196;28;20261;-70
2021/10/15 12:19:00;;;;;;;1.13;1.13;;;11.70;99.90;;;;;;5011288;28;20260;-70
2021/10/15 12:21:32;;;;;;;1.40;1.20;;;11.70;99.90;;;;;;5010859;28;20198;-70
2021/10/15 12:23:59;;;;;;;1.43;1.13;;;11.70;99.90;;;;;;5011247;28;21055;-70
2021/10/15 12:26:27;;;;;;;1.40;1.30;;;11.70;99.90;;;;;;5011090;28;20209;-70
2021/10/15 12:28:54;;;;;;;1.60;1.50;;;11.60;99.90;;;;;;5011354;28;20599;-70
2021/10/15 12:31:29;;;;;;;1.90;1.37;;;11.70;99.90;;;;;;5010873;28;20217;-70
2021/10/15 12:34:08;;;;;;;1.30;1.30;;;11.70;99.90;;;;;;5011022;28;20240;-70
2021/10/15 12:36:37;;;;;;;1.97;1.87;;;11.60;99.90;;;;;;5010542;28;21070;-70
2021/10/15 12:39:26;;;;;;;1.70;1.60;;;11.50;99.90;;;;;;5011072;28;20256;-70
2021/10/15 12:41:55;;;;;;;1.93;1.70;;;11.40;99.90;;;;;;5010838;28;20201;-70
2021/10/15 12:44:30;;;;;;;1.97;1.70;;;11.30;99.90;;;;;;5010758;28;20205;-70
2021/10/15 12:47:02;;;;;;;6.87;1.50;;;11.30;99.90;;;;;;5010505;28;20254;-70
2021/10/15 12:49:30;;;;;;;1.90;1.80;;;11.30;99.90;;;;;;5010146;28;20193;-70
2021/10/15 12:51:57;;;;;;;1.33;1.20;;;11.40;99.90;;;;;;5010600;28;20304;-70
2021/10/15 12:54:41;;;;;;;1.07;1.07;;;11.40;99.90;;;;;;5010492;28;20268;-70
2021/10/15 12:57:14;;;;;;;1.40;1.40;;;11.20;99.90;;;;;;5010421;28;20258;-70
2021/10/15 12:59:41;;;;;;;1.53;1.43;;;11.30;99.90;;;;;;5009922;28;20265;-70
2021/10/15 13:02:09;;;;;;;1.83;1.10;;;11.20;99.90;;;;;;5010456;28;20198;-70
2021/10/15 13:04:37;;;;;;;1.40;1.30;;;11.20;99.90;;;;;;5010253;28;20551;-70